createdAt,value
2024-02-04T00:01:22.330Z,10.30
2024-02-04T00:03:57.518Z,10.30
2024-02-04T00:06:32.358Z,10.30
2024-02-04T00:09:01.746Z,10.30
2024-02-04T00:11:36.428Z,10.30
2024-02-04T00:14:10.397Z,10.30
2024-02-04T00:16:39.994Z,10.30
2024-02-04T00:19:11.469Z,10.30
2024-02-04T00:21:45.479Z,10.30
2024-02-04T00:24:14.282Z,10.30
2024-02-04T00:26:54.790Z,10.30
2024-02-04T00:29:24.380Z,10.30
2024-02-04T00:31:53.559Z,10.30
2024-02-04T00:34:22.996Z,10.30
2024-02-04T00:36:52.037Z,10.30
2024-02-04T00:39:20.998Z,10.30
2024-02-04T00:41:51.354Z,10.30
2024-02-04T00:44:20.222Z,10.20
2024-02-04T00:46:48.873Z,10.30
2024-02-04T00:49:18.382Z,10.20
2024-02-04T00:51:47.811Z,10.20
2024-02-04T00:54:16.534Z,10.20
2024-02-04T00:56:45.388Z,10.10
2024-02-04T00:59:15.921Z,10.10
2024-02-04T01:01:45.060Z,10.10
2024-02-04T01:04:14.038Z,10.10
2024-02-04T01:06:51.409Z,10.00
2024-02-04T01:09:29.294Z,10.10
2024-02-04T01:11:57.880Z,10.00
2024-02-04T01:14:28.267Z,9.90
2024-02-04T01:16:56.834Z,9.90
2024-02-04T01:19:25.801Z,10.00
2024-02-04T01:21:54.604Z,9.90
2024-02-04T01:24:23.307Z,9.90
2024-02-04T01:26:52.546Z,10.00
2024-02-04T01:29:21.344Z,9.90
2024-02-04T01:31:51.281Z,9.90
2024-02-04T01:34:19.634Z,9.90
2024-02-04T01:36:48.118Z,10.00
2024-02-04T01:39:16.912Z,10.00
2024-02-04T01:41:47.128Z,10.00
2024-02-04T01:44:17.254Z,10.00
2024-02-04T01:46:45.668Z,10.00
2024-02-04T01:49:15.847Z,10.10
2024-02-04T01:51:44.531Z,10.10
2024-02-04T01:54:13.334Z,10.10
2024-02-04T01:56:41.760Z,10.10
2024-02-04T01:59:10.643Z,10.10
2024-02-04T02:01:39.353Z,10.10
2024-02-04T02:04:08.160Z,10.10
2024-02-04T02:06:43.540Z,10.10
2024-02-04T02:09:14.324Z,10.10
2024-02-04T02:11:44.043Z,10.10
2024-02-04T02:14:16.034Z,10.20
2024-02-04T02:16:45.461Z,10.20
2024-02-04T02:19:22.006Z,10.20
2024-02-04T02:21:55.043Z,10.20
2024-02-04T02:24:34.503Z,10.30
2024-02-04T02:27:02.968Z,10.30
2024-02-04T02:29:31.311Z,10.20
2024-02-04T02:31:59.826Z,10.20
2024-02-04T02:34:35.462Z,10.20
2024-02-04T02:37:11.744Z,10.20
2024-02-04T02:39:44.179Z,10.10
2024-02-04T02:42:14.396Z,10.30
2024-02-04T02:44:42.991Z,10.30
2024-02-04T02:47:12.133Z,10.30
2024-02-04T02:49:40.650Z,10.20
2024-02-04T02:52:09.372Z,10.20
2024-02-04T02:54:37.804Z,10.30
2024-02-04T02:57:07.908Z,10.30
2024-02-04T02:59:36.839Z,10.30
2024-02-04T03:02:05.505Z,10.20
2024-02-04T03:04:34.101Z,10.20
2024-02-04T03:07:02.603Z,10.20
2024-02-04T03:09:31.342Z,10.20
2024-02-04T03:12:00.026Z,10.20
2024-02-04T03:14:29.762Z,10.10
2024-02-04T03:16:58.049Z,10.20
2024-02-04T03:19:26.446Z,10.20
2024-02-04T03:21:55.161Z,10.20
2024-02-04T03:24:23.589Z,10.20
2024-02-04T03:26:52.169Z,10.20
2024-02-04T03:29:20.594Z,10.20
2024-02-04T03:31:51.127Z,10.10
2024-02-04T03:34:19.605Z,10.10
2024-02-04T03:36:48.004Z,10.10
2024-02-04T03:39:16.845Z,10.10
2024-02-04T03:41:45.226Z,10.00
2024-02-04T03:44:13.642Z,10.00
2024-02-04T03:46:42.318Z,10.00
2024-02-04T03:49:12.117Z,10.00
2024-02-04T03:51:40.882Z,10.00
2024-02-04T03:54:09.369Z,10.00
2024-02-04T03:56:37.764Z,10.00
2024-02-04T03:59:07.925Z,10.00
2024-02-04T04:01:36.779Z,10.00
2024-02-04T04:04:08.711Z,10.00
2024-02-04T04:06:38.642Z,10.00
2024-02-04T04:09:07.081Z,10.00
2024-02-04T04:11:35.423Z,10.00
2024-02-04T04:14:04.048Z,10.00
2024-02-04T04:16:32.372Z,10.00
2024-02-04T04:19:01.020Z,10.10
2024-02-04T04:21:29.439Z,10.10
2024-02-04T04:23:59.451Z,10.10
2024-02-04T04:26:27.932Z,10.40
2024-02-04T04:28:56.261Z,10.10
2024-02-04T04:31:24.604Z,10.10
2024-02-04T04:33:55.325Z,10.10
2024-02-04T04:36:23.853Z,10.10
2024-02-04T04:38:52.165Z,10.10
2024-02-04T04:41:21.969Z,10.10
2024-02-04T04:43:50.569Z,10.20
2024-02-04T04:46:18.978Z,10.20
2024-02-04T04:48:47.495Z,10.20
2024-02-04T04:51:15.932Z,10.20
2024-02-04T04:53:44.615Z,10.20
2024-02-04T04:56:13.041Z,10.20
2024-02-04T04:58:42.747Z,10.30
2024-02-04T05:01:11.260Z,12.20
2024-02-04T05:03:40.052Z,10.20
2024-02-04T05:06:08.530Z,10.20
2024-02-04T05:08:36.875Z,10.20
2024-02-04T05:11:06.435Z,10.20
2024-02-04T05:13:34.918Z,10.20
2024-02-04T05:16:05.018Z,10.10
2024-02-04T05:18:33.877Z,10.10
2024-02-04T05:21:03.503Z,10.10
2024-02-04T05:23:31.826Z,10.00
2024-02-04T05:26:00.265Z,10.00
2024-02-04T05:28:28.983Z,10.00
2024-02-04T05:30:57.281Z,10.00
2024-02-04T05:33:27.199Z,10.00
2024-02-04T05:35:55.562Z,9.90
2024-02-04T05:38:24.234Z,9.90
2024-02-04T05:40:52.674Z,10.00
2024-02-04T05:43:21.196Z,10.00
2024-02-04T05:45:49.835Z,9.90
2024-02-04T05:48:18.743Z,9.90
2024-02-04T05:50:48.852Z,9.80
2024-02-04T05:53:17.359Z,9.80
2024-02-04T05:55:46.205Z,9.80
2024-02-04T05:58:15.373Z,9.80
2024-02-04T06:00:43.815Z,9.80
2024-02-04T06:03:12.210Z,9.90
2024-02-04T06:05:40.908Z,9.90
2024-02-04T06:08:10.746Z,9.90
2024-02-04T06:10:39.304Z,9.80
2024-02-04T06:13:07.663Z,9.80
2024-02-04T06:15:36.918Z,9.80
2024-02-04T06:18:05.503Z,9.80
2024-02-04T06:20:33.909Z,9.90
2024-02-04T06:23:02.845Z,9.80
2024-02-04T06:25:33.595Z,9.80
2024-02-04T06:28:02.167Z,9.80
2024-02-04T06:30:30.611Z,9.80
2024-02-04T06:33:00.267Z,9.80
2024-02-04T06:35:28.926Z,9.80
2024-02-04T06:38:00.419Z,9.80
2024-02-04T06:40:30.146Z,9.90
2024-02-04T06:43:00.490Z,9.90
2024-02-04T06:45:29.144Z,9.90
2024-02-04T06:47:57.917Z,9.90
2024-02-04T06:50:26.302Z,9.90
2024-02-04T06:52:55.120Z,9.90
2024-02-04T06:55:23.583Z,9.90
2024-02-04T06:57:52.064Z,9.90
2024-02-04T07:00:23.365Z,9.90
2024-02-04T07:02:51.894Z,9.90
2024-02-04T07:05:23.327Z,10.00
2024-02-04T07:07:52.087Z,10.00
2024-02-04T07:10:21.085Z,10.00
2024-02-04T07:12:49.476Z,10.00
2024-02-04T07:15:17.905Z,10.00
2024-02-04T07:17:47.788Z,10.00
2024-02-04T07:20:16.960Z,10.00
2024-02-04T07:22:46.001Z,10.00
2024-02-04T07:25:14.783Z,10.00
2024-02-04T07:27:43.382Z,10.00
2024-02-04T07:30:12.700Z,10.00
2024-02-04T07:32:41.442Z,10.10
2024-02-04T07:35:12.243Z,10.10
2024-02-04T07:37:43.603Z,10.00
2024-02-04T07:40:13.014Z,10.00
2024-02-04T07:42:41.671Z,10.10
2024-02-04T07:45:11.244Z,10.10
2024-02-04T07:47:39.725Z,10.10
2024-02-04T07:50:09.271Z,10.10
2024-02-04T07:52:41.719Z,10.10
2024-02-04T07:55:12.171Z,10.10
2024-02-04T07:57:40.746Z,10.10
2024-02-04T08:00:11.804Z,10.10
2024-02-04T08:02:40.708Z,10.20
2024-02-04T08:05:09.701Z,10.20
2024-02-04T08:07:40.139Z,10.20
2024-02-04T08:10:09.441Z,10.10
2024-02-04T08:12:37.958Z,10.20
2024-02-04T08:15:09.982Z,10.20
2024-02-04T08:17:38.706Z,10.20
2024-02-04T08:20:08.764Z,10.30
2024-02-04T08:22:38.070Z,10.20
2024-02-04T08:25:11.239Z,10.30
2024-02-04T08:27:42.300Z,10.30
2024-02-04T08:30:16.532Z,10.30
2024-02-04T08:32:45.791Z,10.30
2024-02-04T08:35:14.800Z,10.30
2024-02-04T08:37:44.924Z,10.30
2024-02-04T08:40:17.741Z,10.30
2024-02-04T08:42:47.575Z,10.30
2024-02-04T08:45:16.508Z,10.30
2024-02-04T08:47:46.184Z,10.40
2024-02-04T08:50:15.725Z,10.40
2024-02-04T08:52:45.390Z,10.40
2024-02-04T08:55:17.017Z,10.30
2024-02-04T08:57:46.857Z,10.30
2024-02-04T09:00:18.166Z,10.40
2024-02-04T09:02:52.973Z,10.40
2024-02-04T09:05:22.055Z,10.40
2024-02-04T09:07:54.359Z,10.40
2024-02-04T09:10:30.750Z,10.40
2024-02-04T09:12:59.761Z,10.40
2024-02-04T09:15:29.432Z,10.40
2024-02-04T09:17:58.881Z,10.40
2024-02-04T09:20:27.954Z,10.40
2024-02-04T09:23:06.773Z,10.40
2024-02-04T09:25:37.108Z,10.30
2024-02-04T09:28:11.746Z,10.30
2024-02-04T09:30:41.033Z,11.90
2024-02-04T09:33:11.357Z,10.30
2024-02-04T09:35:42.287Z,10.40
2024-02-04T09:38:14.301Z,10.30
2024-02-04T09:40:51.529Z,10.30
2024-02-04T09:43:22.682Z,10.30
2024-02-04T09:45:54.767Z,10.30
2024-02-04T09:48:27.126Z,10.20
2024-02-04T09:50:57.059Z,10.30
2024-02-04T09:53:33.277Z,10.20
2024-02-04T09:56:10.714Z,10.10
2024-02-04T09:58:40.048Z,10.10
2024-02-04T10:01:11.501Z,10.00
2024-02-04T10:03:40.641Z,10.00
2024-02-04T10:06:17.636Z,10.00
2024-02-04T10:08:48.037Z,9.90
2024-02-04T10:11:22.375Z,9.90
2024-02-04T10:13:53.056Z,9.90
2024-02-04T10:16:29.345Z,9.90
2024-02-04T10:18:59.018Z,10.00
2024-02-04T10:21:36.042Z,10.10
2024-02-04T10:24:13.017Z,10.10
2024-02-04T10:27:02.613Z,10.10
2024-02-04T10:29:41.239Z,10.10
2024-02-04T10:32:16.911Z,10.10
2024-02-04T10:34:54.209Z,10.10
2024-02-04T10:37:32.127Z,10.20
2024-02-04T10:40:07.518Z,10.20
2024-02-04T10:43:01.755Z,10.20
2024-02-04T10:45:35.470Z,10.20
2024-02-04T10:48:07.007Z,10.10
2024-02-04T10:50:41.277Z,10.20
2024-02-04T10:53:21.540Z,10.30
2024-02-04T10:55:53.302Z,10.40
2024-02-04T10:58:33.375Z,10.40
2024-02-04T11:01:21.053Z,10.40
2024-02-04T11:03:55.166Z,10.50
2024-02-04T11:06:25.942Z,10.50
2024-02-04T11:08:56.927Z,10.50
2024-02-04T11:11:28.756Z,10.60
2024-02-04T11:14:07.401Z,10.60
2024-02-04T11:16:52.258Z,10.70
2024-02-04T11:19:30.226Z,10.80
2024-02-04T11:22:24.774Z,11.00
2024-02-04T11:25:08.188Z,11.00
2024-02-04T11:27:43.006Z,11.00
2024-02-04T11:30:20.073Z,11.00
2024-02-04T11:32:53.426Z,11.00
2024-02-04T11:35:29.069Z,11.10
2024-02-04T11:38:00.355Z,11.30
2024-02-04T11:40:37.147Z,11.50
2024-02-04T11:43:09.099Z,11.70
2024-02-04T11:45:46.067Z,11.70
2024-02-04T11:48:17.333Z,11.70
2024-02-04T11:51:02.306Z,11.60
2024-02-04T11:53:37.954Z,11.60
2024-02-04T11:56:16.640Z,11.50
2024-02-04T11:58:51.385Z,11.40
2024-02-04T12:01:25.994Z,11.40
2024-02-04T12:03:59.696Z,11.30
2024-02-04T12:06:32.902Z,11.30
2024-02-04T12:09:09.570Z,11.30
2024-02-04T12:11:45.428Z,11.20
2024-02-04T12:14:23.445Z,11.30
2024-02-04T12:16:58.975Z,11.30
2024-02-04T12:19:29.780Z,11.30
2024-02-04T12:22:01.812Z,11.10
2024-02-04T12:24:40.864Z,11.10
2024-02-04T12:27:10.607Z,11.10
2024-02-04T12:29:49.636Z,11.00
2024-02-04T12:32:22.966Z,11.00
2024-02-04T12:34:55.976Z,10.90
2024-02-04T12:37:28.818Z,10.90
2024-02-04T12:39:58.201Z,11.00
2024-02-04T12:42:27.394Z,10.80
2024-02-04T12:45:00.714Z,10.90
2024-02-04T12:47:31.232Z,10.80
2024-02-04T12:50:10.866Z,10.80
2024-02-04T12:52:43.334Z,10.80
2024-02-04T12:55:25.478Z,10.80
2024-02-04T12:58:10.117Z,10.90
2024-02-04T13:00:44.952Z,10.90
2024-02-04T13:03:24.686Z,10.90
2024-02-04T13:06:02.174Z,10.90
2024-02-04T13:08:35.249Z,10.90
2024-02-04T13:11:08.361Z,11.00
2024-02-04T13:13:41.570Z,10.90
2024-02-04T13:16:15.662Z,11.00
2024-02-04T13:18:55.303Z,11.00
2024-02-04T13:21:32.465Z,11.00
2024-02-04T13:24:02.279Z,10.90
2024-02-04T13:26:35.223Z,11.00
2024-02-04T13:29:04.733Z,11.00
2024-02-04T13:31:35.669Z,11.00
2024-02-04T13:34:07.128Z,11.00
2024-02-04T13:36:41.840Z,10.90
2024-02-04T13:39:14.680Z,10.90
2024-02-04T13:41:56.273Z,10.90
2024-02-04T13:44:28.934Z,10.90
2024-02-04T13:47:03.459Z,11.00
2024-02-04T13:49:34.755Z,10.90
2024-02-04T13:52:05.050Z,10.90
2024-02-04T13:54:34.449Z,10.90
2024-02-04T13:57:06.164Z,10.90
2024-02-04T13:59:40.769Z,10.90
2024-02-04T14:02:15.807Z,10.90
2024-02-04T14:04:46.862Z,10.90
2024-02-04T14:07:16.428Z,10.90
2024-02-04T14:09:47.840Z,10.90
2024-02-04T14:12:17.509Z,10.80
2024-02-04T14:14:48.906Z,10.80
2024-02-04T14:17:18.885Z,10.80
2024-02-04T14:19:52.890Z,10.80
2024-02-04T14:22:24.504Z,10.90
2024-02-04T14:24:57.363Z,10.90
2024-02-04T14:27:33.718Z,11.00
2024-02-04T14:30:03.360Z,11.00
2024-02-04T14:32:39.309Z,11.10
2024-02-04T14:35:11.842Z,11.00
2024-02-04T14:37:42.290Z,10.90
2024-02-04T14:40:13.863Z,10.90
2024-02-04T14:42:44.705Z,10.80
2024-02-04T14:45:17.535Z,10.80
2024-02-04T14:47:55.439Z,10.70
2024-02-04T14:50:29.340Z,10.70
2024-02-04T14:53:08.555Z,10.70
2024-02-04T14:55:37.698Z,10.70
2024-02-04T14:58:09.606Z,10.70
2024-02-04T15:00:44.825Z,10.70
2024-02-04T15:03:16.443Z,10.70
2024-02-04T15:05:51.329Z,10.70
2024-02-04T15:08:21.389Z,10.60
2024-02-04T15:10:57.137Z,10.60
2024-02-04T15:16:09.105Z,10.60
2024-02-04T15:18:38.954Z,10.60
2024-02-04T15:21:10.947Z,10.60
2024-02-04T15:23:41.598Z,10.50
2024-02-04T15:26:17.093Z,10.60
2024-02-04T15:28:54.113Z,10.50
2024-02-04T15:31:27.505Z,10.50
2024-02-04T15:33:57.661Z,10.50
2024-02-04T15:36:30.356Z,10.50
2024-02-04T15:39:18.415Z,10.60
2024-02-04T15:41:49.618Z,10.50
2024-02-04T15:44:22.458Z,10.50
2024-02-04T15:47:03.301Z,10.50
2024-02-04T15:49:41.004Z,10.50
2024-02-04T15:52:17.231Z,10.50
2024-02-04T15:54:53.243Z,10.50
2024-02-04T15:57:26.742Z,10.50
2024-02-04T16:00:05.796Z,10.60
2024-02-04T16:02:40.807Z,10.60
2024-02-04T16:05:17.094Z,10.50
2024-02-04T16:07:52.259Z,10.60
2024-02-04T16:10:27.089Z,10.50
2024-02-04T16:12:57.716Z,10.50
2024-02-04T16:15:32.569Z,10.50
2024-02-04T16:18:09.218Z,10.50
2024-02-04T16:20:45.368Z,10.60
2024-02-04T16:23:19.444Z,10.50
2024-02-04T16:26:03.951Z,10.60
2024-02-04T16:28:43.470Z,10.50
2024-02-04T16:31:17.477Z,10.60
2024-02-04T16:33:50.387Z,10.60
2024-02-04T16:36:25.680Z,10.60
2024-02-04T16:38:57.674Z,10.60
2024-02-04T16:41:32.515Z,10.60
2024-02-04T16:44:14.062Z,10.60
2024-02-04T16:46:49.668Z,10.60
2024-02-04T16:49:24.691Z,10.60
2024-02-04T16:52:05.388Z,10.60
2024-02-04T16:54:43.768Z,10.60
2024-02-04T16:57:18.289Z,10.50
2024-02-04T16:59:53.326Z,10.50
2024-02-04T17:02:27.001Z,10.60
2024-02-04T17:05:05.764Z,10.50
2024-02-04T17:07:37.155Z,10.50
2024-02-04T17:10:16.533Z,10.50
2024-02-04T17:12:58.898Z,10.50
2024-02-04T17:15:47.269Z,10.50
2024-02-04T17:18:25.616Z,10.50
2024-02-04T17:21:13.673Z,10.50
2024-02-04T17:23:55.275Z,10.50
2024-02-04T17:26:42.193Z,10.50
2024-02-04T17:29:18.489Z,10.50
2024-02-04T17:31:54.652Z,10.50
2024-02-04T17:34:32.615Z,10.50
2024-02-04T17:37:11.120Z,10.50
2024-02-04T17:39:43.764Z,10.40
2024-02-04T17:42:18.014Z,10.40
2024-02-04T17:44:51.139Z,10.40
2024-02-04T17:47:22.615Z,10.50
2024-02-04T17:49:56.402Z,10.50
2024-02-04T17:52:36.421Z,10.40
2024-02-04T17:55:06.896Z,10.40
2024-02-04T17:57:43.450Z,10.50
2024-02-04T18:00:13.907Z,10.50
2024-02-04T18:02:52.726Z,10.40
2024-02-04T18:05:23.311Z,10.40
2024-02-04T18:07:55.874Z,10.40
2024-02-04T18:10:31.805Z,10.40
2024-02-04T18:13:06.872Z,10.40
2024-02-04T18:16:02.490Z,10.50
2024-02-04T18:18:35.692Z,10.40
2024-02-04T18:21:12.503Z,10.40
2024-02-04T18:23:42.271Z,10.40
2024-02-04T18:26:23.437Z,10.40
2024-02-04T18:29:13.562Z,10.30
2024-02-04T18:31:49.998Z,10.30
2024-02-04T18:34:22.564Z,10.30
2024-02-04T18:36:53.831Z,10.30
2024-02-04T18:39:31.153Z,10.30
2024-02-04T18:42:03.285Z,10.30
2024-02-04T18:44:40.300Z,10.30
2024-02-04T18:47:23.749Z,10.30
2024-02-04T18:50:00.353Z,10.30
2024-02-04T18:52:39.226Z,10.20
2024-02-04T18:55:15.430Z,10.30
2024-02-04T18:57:52.561Z,10.30
2024-02-04T19:00:35.487Z,10.30
2024-02-04T19:03:06.713Z,10.20
2024-02-04T19:05:46.216Z,10.20
2024-02-04T19:08:40.498Z,10.20
2024-02-04T19:11:18.643Z,10.20
2024-02-04T19:13:58.770Z,10.20
2024-02-04T19:16:36.942Z,10.20
2024-02-04T19:19:15.052Z,10.30
2024-02-04T19:21:51.494Z,10.30
2024-02-04T19:24:26.069Z,10.30
2024-02-04T19:26:58.284Z,10.20
2024-02-04T19:29:34.368Z,10.30
2024-02-04T19:32:14.496Z,10.30
2024-02-04T19:34:45.798Z,10.30
2024-02-04T19:37:24.706Z,10.30
2024-02-04T19:39:58.714Z,10.30
2024-02-04T19:42:29.882Z,10.20
2024-02-04T19:45:03.268Z,10.30
2024-02-04T19:47:41.081Z,10.30
2024-02-04T19:50:15.813Z,10.30
2024-02-04T19:52:52.049Z,10.30
2024-02-04T19:55:26.271Z,10.30
2024-02-04T19:58:03.539Z,10.30
2024-02-04T20:00:42.146Z,10.30
2024-02-04T20:03:21.607Z,10.40
2024-02-04T20:05:51.310Z,10.30
2024-02-04T20:08:20.923Z,10.30
2024-02-04T20:11:09.270Z,10.40
2024-02-04T20:13:46.822Z,10.40
2024-02-04T20:16:19.422Z,10.40
2024-02-04T20:18:58.738Z,10.40
2024-02-04T20:21:38.492Z,10.40
2024-02-04T20:24:09.640Z,10.40
2024-02-04T20:26:47.703Z,10.40
2024-02-04T20:29:22.658Z,10.40
2024-02-04T20:32:02.604Z,10.40
2024-02-04T20:34:43.759Z,10.40
2024-02-04T20:37:26.472Z,10.40
2024-02-04T20:39:55.974Z,10.30
2024-02-04T20:42:34.653Z,10.40
2024-02-04T20:45:12.257Z,10.40
2024-02-04T20:47:56.751Z,10.40
2024-02-04T20:50:32.732Z,10.40
2024-02-04T20:53:03.441Z,10.40
2024-02-04T20:55:47.929Z,10.40
2024-02-04T20:58:27.234Z,10.40
2024-02-04T21:01:03.462Z,10.40
2024-02-04T21:03:38.741Z,10.40
2024-02-04T21:06:18.489Z,10.40
2024-02-04T21:08:50.848Z,10.50
2024-02-04T21:11:23.635Z,8.20
2024-02-04T21:14:01.907Z,10.50
2024-02-04T21:16:32.261Z,10.50
2024-02-04T21:19:05.378Z,10.50
2024-02-04T21:21:40.351Z,10.50
2024-02-04T21:24:16.535Z,10.60
2024-02-04T21:26:46.724Z,10.50
2024-02-04T21:29:19.918Z,10.50
2024-02-04T21:31:53.078Z,10.50
2024-02-04T21:34:25.443Z,10.50
2024-02-04T21:36:59.084Z,10.50
2024-02-04T21:39:36.145Z,10.50
2024-02-04T21:42:13.656Z,10.50
2024-02-04T21:44:47.533Z,10.60
2024-02-04T21:47:22.415Z,10.60
2024-02-04T21:49:56.087Z,10.60
2024-02-04T21:52:37.823Z,10.60
2024-02-04T21:55:10.286Z,10.60
2024-02-04T21:57:41.225Z,10.60
2024-02-04T22:00:14.549Z,10.60
2024-02-04T22:02:46.237Z,10.60
2024-02-04T22:05:19.370Z,10.60
2024-02-04T22:07:57.006Z,10.60
2024-02-04T22:10:27.002Z,10.50
2024-02-04T22:12:58.998Z,10.50
2024-02-04T22:15:29.720Z,10.50
2024-02-04T22:18:06.056Z,10.50
2024-02-04T22:20:36.369Z,10.50
2024-02-04T22:23:09.847Z,10.60
2024-02-04T22:25:38.947Z,10.60
2024-02-04T22:28:11.082Z,10.60
2024-02-04T22:31:04.248Z,10.60
2024-02-04T22:33:37.987Z,10.60
2024-02-04T22:36:10.026Z,10.60
2024-02-04T22:38:42.970Z,10.60
2024-02-04T22:41:12.223Z,10.60
2024-02-04T22:43:41.796Z,10.60
2024-02-04T22:46:20.830Z,10.60
2024-02-04T22:48:50.596Z,12.30
2024-02-04T22:51:22.699Z,10.60
2024-02-04T22:53:54.604Z,10.60
2024-02-04T22:56:24.024Z,10.70
2024-02-04T22:58:55.167Z,10.70
2024-02-04T23:01:42.502Z,10.70
2024-02-04T23:04:12.048Z,10.60
2024-02-04T23:06:41.602Z,10.60
2024-02-04T23:09:15.062Z,10.60
2024-02-04T23:11:43.713Z,10.70
2024-02-04T23:14:12.954Z,10.60
2024-02-04T23:16:42.072Z,10.60
2024-02-04T23:19:11.193Z,10.60
2024-02-04T23:21:40.715Z,10.70
2024-02-04T23:24:09.665Z,10.60
2024-02-04T23:26:40.563Z,10.60
2024-02-04T23:29:09.567Z,10.70
2024-02-04T23:31:40.517Z,10.70
2024-02-04T23:34:09.432Z,10.70
2024-02-04T23:36:38.250Z,10.70
2024-02-04T23:39:08.767Z,10.70
2024-02-04T23:41:41.129Z,10.70
2024-02-04T23:44:11.482Z,10.60
2024-02-04T23:46:40.351Z,10.60
2024-02-04T23:49:10.862Z,10.60
2024-02-04T23:51:39.649Z,10.60
2024-02-04T23:54:08.588Z,10.60
2024-02-04T23:56:38.188Z,10.60
2024-02-04T23:59:08.606Z,10.60
